createdAt,value
2023-01-22T00:01:04.750Z,70.70
2023-01-22T00:03:31.993Z,69.18
2023-01-22T00:05:58.806Z,68.53
2023-01-22T00:08:25.585Z,67.45
2023-01-22T00:10:53.493Z,68.90
2023-01-22T00:13:22.034Z,69.82
2023-01-22T00:15:49.303Z,62.83
2023-01-22T00:18:17.092Z,68.28
2023-01-22T00:20:51.673Z,69.28
2023-01-22T00:23:19.076Z,59.47
2023-01-22T00:25:46.648Z,59.05
2023-01-22T00:28:13.543Z,62.00
2023-01-22T00:30:40.271Z,58.25
2023-01-22T00:33:07.127Z,61.30
2023-01-22T00:35:37.052Z,53.97
2023-01-22T00:38:04.218Z,55.78
2023-01-22T00:40:31.001Z,56.22
2023-01-22T00:42:57.817Z,52.50
2023-01-22T00:45:24.664Z,49.78
2023-01-22T00:47:52.108Z,55.22
2023-01-22T00:50:19.539Z,52.65
2023-01-22T00:52:46.689Z,47.80
2023-01-22T00:55:13.503Z,53.08
2023-01-22T00:57:40.273Z,54.70
2023-01-22T01:00:07.802Z,51.58
2023-01-22T01:02:54.574Z,60.83
2023-01-22T01:05:21.397Z,52.72
2023-01-22T01:07:48.203Z,56.72
2023-01-22T01:10:15.312Z,56.38
2023-01-22T01:12:42.107Z,56.90
2023-01-22T01:15:09.745Z,62.97
2023-01-22T01:17:36.773Z,62.58
2023-01-22T01:20:03.884Z,54.05
2023-01-22T01:22:30.745Z,51.70
2023-01-22T01:24:57.613Z,55.72
2023-01-22T01:27:24.430Z,53.75
2023-01-22T01:29:51.297Z,57.00
2023-01-22T01:32:18.016Z,55.42
2023-01-22T01:34:45.668Z,53.50
2023-01-22T01:37:12.511Z,60.60
2023-01-22T01:39:39.276Z,54.90
2023-01-22T01:42:06.133Z,52.85
2023-01-22T01:44:33.276Z,55.63
2023-01-22T01:47:05.843Z,55.47
2023-01-22T01:49:38.105Z,54.95
2023-01-22T01:52:10.745Z,58.45
2023-01-22T01:54:39.377Z,58.28
2023-01-22T01:57:14.693Z,54.08
2023-01-22T01:59:42.976Z,52.30
2023-01-22T02:02:10.021Z,52.67
2023-01-22T02:04:36.902Z,53.97
2023-01-22T02:07:07.477Z,52.67
2023-01-22T02:09:34.594Z,51.08
2023-01-22T02:12:03.220Z,59.50
2023-01-22T02:14:37.380Z,61.05
2023-01-22T02:17:20.523Z,57.28
2023-01-22T02:19:48.037Z,54.88
2023-01-22T02:22:20.449Z,51.58
2023-01-22T02:24:47.268Z,49.97
2023-01-22T02:27:14.351Z,51.25
2023-01-22T02:29:41.260Z,55.05
2023-01-22T02:32:08.004Z,53.97
2023-01-22T02:34:34.761Z,51.55
2023-01-22T02:37:01.486Z,51.17
2023-01-22T02:39:28.635Z,46.50
2023-01-22T02:41:55.482Z,49.85
2023-01-22T02:44:22.494Z,48.15
2023-01-22T02:46:49.400Z,46.92
2023-01-22T02:49:16.255Z,50.13
2023-01-22T02:51:43.062Z,52.13
2023-01-22T02:54:09.828Z,52.33
2023-01-22T02:56:36.730Z,51.08
2023-01-22T02:59:04.070Z,48.20
2023-01-22T03:01:31.100Z,52.25
2023-01-22T03:04:01.610Z,46.03
2023-01-22T03:06:30.136Z,51.17
2023-01-22T03:09:00.961Z,47.42
2023-01-22T03:11:30.278Z,47.10
2023-01-22T03:14:16.148Z,46.00
2023-01-22T03:17:02.372Z,46.97
2023-01-22T03:19:48.356Z,49.65
2023-01-22T03:22:16.224Z,47.22
2023-01-22T03:24:44.149Z,49.70
2023-01-22T03:27:10.995Z,47.47
2023-01-22T03:29:38.460Z,47.45
2023-01-22T03:32:06.341Z,50.40
2023-01-22T03:34:33.456Z,50.05
2023-01-22T03:37:00.469Z,48.60
2023-01-22T03:39:28.206Z,47.47
2023-01-22T03:41:54.980Z,44.03
2023-01-22T03:44:21.703Z,46.67
2023-01-22T03:46:48.647Z,46.78
2023-01-22T03:49:15.455Z,49.00
2023-01-22T03:51:43.452Z,45.10
2023-01-22T03:54:14.904Z,45.75
2023-01-22T03:56:42.214Z,46.42
2023-01-22T03:59:10.287Z,53.53
2023-01-22T04:01:37.224Z,47.35
2023-01-22T04:04:04.201Z,44.10
2023-01-22T04:06:30.987Z,44.60
2023-01-22T04:08:57.730Z,45.67
2023-01-22T04:11:24.551Z,41.42
2023-01-22T04:13:51.323Z,45.70
2023-01-22T04:16:18.387Z,49.90
2023-01-22T04:18:45.256Z,45.20
2023-01-22T04:21:13.015Z,44.30
2023-01-22T04:23:39.804Z,46.22
2023-01-22T04:26:06.611Z,47.28
2023-01-22T04:28:33.379Z,45.15
2023-01-22T04:31:00.272Z,48.38
2023-01-22T04:33:27.139Z,48.90
2023-01-22T04:35:55.100Z,47.92
2023-01-22T04:38:22.272Z,46.88
2023-01-22T04:40:49.047Z,45.00
2023-01-22T04:43:15.859Z,46.72
2023-01-22T04:45:42.642Z,45.10
2023-01-22T04:48:11.035Z,47.50
2023-01-22T04:50:37.811Z,49.95
2023-01-22T04:53:05.065Z,46.78
2023-01-22T04:55:32.101Z,43.60
2023-01-22T04:58:00.057Z,44.40
2023-01-22T05:00:28.087Z,44.33
2023-01-22T05:02:59.844Z,49.55
2023-01-22T05:05:27.478Z,44.22
2023-01-22T05:07:54.310Z,46.80
2023-01-22T05:10:22.186Z,45.30
2023-01-22T05:12:49.429Z,47.75
2023-01-22T05:15:23.940Z,42.60
2023-01-22T05:17:51.431Z,42.95
2023-01-22T05:20:18.575Z,44.90
2023-01-22T05:22:45.645Z,44.05
2023-01-22T05:25:12.691Z,46.88
2023-01-22T05:27:39.471Z,43.25
2023-01-22T05:30:06.935Z,40.50
2023-01-22T05:32:33.796Z,43.83
2023-01-22T05:35:00.579Z,45.15
2023-01-22T05:37:27.391Z,40.42
2023-01-22T05:39:54.279Z,39.25
2023-01-22T05:42:21.114Z,42.13
2023-01-22T05:44:48.129Z,40.60
2023-01-22T05:47:15.407Z,41.63
2023-01-22T05:49:42.641Z,43.20
2023-01-22T05:52:10.917Z,42.63
2023-01-22T05:54:39.794Z,40.70
2023-01-22T05:57:07.167Z,42.65
2023-01-22T05:59:34.000Z,44.55
2023-01-22T06:02:01.089Z,39.65
2023-01-22T06:04:28.111Z,43.47
2023-01-22T06:06:54.965Z,41.72
2023-01-22T06:09:22.001Z,42.47
2023-01-22T06:11:48.767Z,39.13
2023-01-22T06:14:15.621Z,42.15
2023-01-22T06:16:42.491Z,39.75
2023-01-22T06:19:09.501Z,39.13
2023-01-22T06:21:36.294Z,41.53
2023-01-22T06:24:03.165Z,42.15
2023-01-22T06:26:29.917Z,38.33
2023-01-22T06:28:56.803Z,39.72
2023-01-22T06:31:23.661Z,41.75
2023-01-22T06:33:50.500Z,37.30
2023-01-22T06:36:17.261Z,43.00
2023-01-22T06:38:44.151Z,40.50
2023-01-22T06:41:11.090Z,42.30
2023-01-22T06:43:37.955Z,39.33
2023-01-22T06:46:05.565Z,41.20
2023-01-22T06:48:32.581Z,41.20
2023-01-22T06:51:02.489Z,42.10
2023-01-22T06:53:29.339Z,40.75
2023-01-22T06:55:59.643Z,37.40
2023-01-22T06:58:26.421Z,40.90
2023-01-22T07:00:53.177Z,39.25
2023-01-22T07:03:20.184Z,38.50
2023-01-22T07:05:47.084Z,37.53
2023-01-22T07:08:15.462Z,40.85
2023-01-22T07:10:42.371Z,36.85
2023-01-22T07:13:10.335Z,35.65
2023-01-22T07:15:37.190Z,33.53
2023-01-22T07:18:04.191Z,37.92
2023-01-22T07:20:31.225Z,34.80
2023-01-22T07:23:00.210Z,38.08
2023-01-22T07:25:27.935Z,32.67
2023-01-22T07:28:03.191Z,38.15
2023-01-22T07:30:30.591Z,39.25
2023-01-22T07:33:01.782Z,33.42
2023-01-22T07:35:29.559Z,38.55
2023-01-22T07:37:58.764Z,32.63
2023-01-22T07:40:26.600Z,36.78
2023-01-22T07:42:54.401Z,34.45
2023-01-22T07:45:22.238Z,33.65
2023-01-22T07:47:59.895Z,33.25
2023-01-22T07:50:31.257Z,30.33
2023-01-22T07:53:02.504Z,32.78
2023-01-22T07:55:33.905Z,33.08
2023-01-22T07:58:06.125Z,29.98
2023-01-22T08:00:35.300Z,35.25
2023-01-22T08:03:04.800Z,37.10
2023-01-22T08:05:31.668Z,34.92
2023-01-22T08:07:58.868Z,32.40
2023-01-22T08:10:25.812Z,31.00
2023-01-22T08:12:52.602Z,34.50
2023-01-22T08:15:19.695Z,32.58
2023-01-22T08:17:50.202Z,36.20
2023-01-22T08:20:17.741Z,35.80
2023-01-22T08:22:45.711Z,35.72
2023-01-22T08:25:12.587Z,33.53
2023-01-22T08:27:39.423Z,33.05
2023-01-22T08:30:08.789Z,34.63
2023-01-22T08:32:35.762Z,34.10
2023-01-22T08:35:02.662Z,34.13
2023-01-22T08:37:29.522Z,29.38
2023-01-22T08:39:56.323Z,33.80
2023-01-22T08:42:23.277Z,35.00
2023-01-22T08:44:50.086Z,32.70
2023-01-22T08:47:16.830Z,34.50
2023-01-22T08:49:43.659Z,34.60
2023-01-22T08:52:10.471Z,32.67
2023-01-22T08:54:37.217Z,34.47
2023-01-22T08:57:04.334Z,32.25
2023-01-22T08:59:31.350Z,32.85
2023-01-22T09:01:59.769Z,31.10
2023-01-22T09:04:27.375Z,30.20
2023-01-22T09:06:54.643Z,33.38
2023-01-22T09:09:21.698Z,28.27
2023-01-22T09:11:48.569Z,32.25
2023-01-22T09:14:15.306Z,29.45
2023-01-22T09:16:42.182Z,31.85
2023-01-22T09:19:10.266Z,28.33
2023-01-22T09:21:39.883Z,32.20
2023-01-22T09:24:07.736Z,30.98
2023-01-22T09:26:36.916Z,26.92
2023-01-22T09:29:05.917Z,28.75
2023-01-22T09:31:34.736Z,29.65
2023-01-22T09:34:01.950Z,29.63
2023-01-22T09:36:29.084Z,28.95
2023-01-22T09:38:56.429Z,28.55
2023-01-22T09:41:34.059Z,28.92
2023-01-22T09:44:16.271Z,34.45
2023-01-22T09:46:50.344Z,39.20
2023-01-22T09:49:20.038Z,38.50
2023-01-22T09:51:57.944Z,39.58
2023-01-22T09:54:26.033Z,43.63
2023-01-22T09:56:55.661Z,38.35
2023-01-22T09:59:25.981Z,41.22
2023-01-22T10:01:59.941Z,41.28
2023-01-22T10:04:37.071Z,35.67
2023-01-22T10:07:08.861Z,37.33
2023-01-22T10:09:36.211Z,32.58
2023-01-22T10:12:13.879Z,34.10
2023-01-22T10:14:43.022Z,32.60
2023-01-22T10:17:19.990Z,34.92
2023-01-22T10:19:50.652Z,37.08
2023-01-22T10:22:22.370Z,34.67
2023-01-22T10:24:49.999Z,36.15
2023-01-22T10:27:20.699Z,37.85
2023-01-22T10:30:08.010Z,34.05
2023-01-22T10:32:34.836Z,35.63
2023-01-22T10:35:19.411Z,33.83
2023-01-22T10:37:52.746Z,31.63
2023-01-22T10:40:27.166Z,32.08
2023-01-22T10:43:01.047Z,32.63
2023-01-22T10:45:27.963Z,36.97
2023-01-22T10:48:13.450Z,35.90
2023-01-22T10:50:41.569Z,37.10
2023-01-22T10:53:37.580Z,37.45
2023-01-22T10:56:12.291Z,32.78
2023-01-22T10:58:45.843Z,36.03
2023-01-22T11:01:28.753Z,35.33
2023-01-22T11:03:55.911Z,36.45
2023-01-22T11:06:29.133Z,33.10
2023-01-22T11:09:11.340Z,33.33
2023-01-22T11:11:42.934Z,34.87
2023-01-22T11:14:21.965Z,37.28
2023-01-22T11:16:52.002Z,38.45
2023-01-22T11:19:36.323Z,34.28
2023-01-22T11:22:11.747Z,35.72
2023-01-22T11:24:47.218Z,39.13
2023-01-22T11:27:43.079Z,35.47
2023-01-22T11:30:21.217Z,35.80
2023-01-22T11:32:57.232Z,35.10
2023-01-22T11:35:24.135Z,33.85
2023-01-22T11:38:15.981Z,31.77
2023-01-22T11:41:01.130Z,31.40
2023-01-22T11:43:46.127Z,34.78
2023-01-22T11:46:47.899Z,34.05
2023-01-22T11:49:29.743Z,34.45
2023-01-22T11:52:18.479Z,34.33
2023-01-22T11:55:17.572Z,33.50
2023-01-22T11:58:22.826Z,32.25
2023-01-22T12:01:20.651Z,33.40
2023-01-22T12:03:56.481Z,33.55
2023-01-22T12:06:54.300Z,32.95
2023-01-22T12:09:26.575Z,32.55
2023-01-22T12:12:13.287Z,38.55
2023-01-22T12:15:19.771Z,35.35
2023-01-22T12:17:52.480Z,32.03
2023-01-22T12:20:46.919Z,38.25
2023-01-22T12:23:25.130Z,35.42
2023-01-22T12:26:09.806Z,35.35
2023-01-22T12:28:41.422Z,37.13
2023-01-22T12:31:31.637Z,34.65
2023-01-22T12:34:03.141Z,34.08
2023-01-22T12:36:32.658Z,40.22
2023-01-22T12:39:23.420Z,37.47
2023-01-22T12:42:09.271Z,36.67
2023-01-22T12:45:17.390Z,37.88
2023-01-22T12:47:59.941Z,38.15
2023-01-22T12:50:27.207Z,42.83
2023-01-22T12:53:05.187Z,39.40
2023-01-22T12:55:38.314Z,43.75
2023-01-22T12:58:17.672Z,42.15
2023-01-22T13:00:44.555Z,45.05
2023-01-22T13:03:38.703Z,46.17
2023-01-22T13:06:31.493Z,44.08
2023-01-22T13:08:58.318Z,50.13
2023-01-22T13:11:39.596Z,44.78
2023-01-22T13:14:21.470Z,47.15
2023-01-22T13:16:55.516Z,48.38
2023-01-22T13:19:27.504Z,44.55
2023-01-22T13:21:59.004Z,41.67
2023-01-22T13:24:25.787Z,42.30
2023-01-22T13:26:52.540Z,43.50
2023-01-22T13:29:28.068Z,41.88
2023-01-22T13:32:04.384Z,37.22
2023-01-22T13:34:31.967Z,37.13
2023-01-22T13:36:59.062Z,35.22
2023-01-22T13:39:29.724Z,36.42
2023-01-22T13:42:02.139Z,32.20
2023-01-22T13:44:40.729Z,33.55
2023-01-22T13:47:07.870Z,33.97
2023-01-22T13:49:43.024Z,34.38
2023-01-22T13:52:16.187Z,31.05
2023-01-22T13:55:11.724Z,33.97
2023-01-22T13:57:45.297Z,24.02
2023-01-22T14:00:30.074Z,18.00
2023-01-22T14:02:58.195Z,17.45
2023-01-22T14:05:35.075Z,16.17
2023-01-22T14:08:07.664Z,14.15
2023-01-22T14:10:35.011Z,15.02
2023-01-22T14:13:07.369Z,15.02
2023-01-22T14:15:34.896Z,18.17
2023-01-22T14:18:08.634Z,14.45
2023-01-22T14:20:37.917Z,19.25
2023-01-22T14:23:04.694Z,15.82
2023-01-22T14:25:31.856Z,14.43
2023-01-22T14:28:00.173Z,19.13
2023-01-22T14:30:26.918Z,18.15
2023-01-22T14:32:53.747Z,15.63
2023-01-22T14:35:23.804Z,16.98
2023-01-22T14:37:52.195Z,17.05
2023-01-22T14:40:21.246Z,18.13
2023-01-22T14:42:48.477Z,13.48
2023-01-22T14:45:16.815Z,15.80
2023-01-22T14:47:43.890Z,22.65
2023-01-22T14:50:11.491Z,15.60
2023-01-22T14:52:38.642Z,17.95
2023-01-22T14:55:06.302Z,18.65
2023-01-22T14:57:33.064Z,17.73
2023-01-22T15:00:01.545Z,18.50
2023-01-22T15:02:28.337Z,15.40
2023-01-22T15:04:55.367Z,22.55
2023-01-22T15:07:22.138Z,17.77
2023-01-22T15:09:48.850Z,13.88
2023-01-22T15:12:15.595Z,13.10
2023-01-22T15:14:42.671Z,14.85
2023-01-22T15:17:09.497Z,15.65
2023-01-22T15:19:41.228Z,17.55
2023-01-22T15:22:09.008Z,17.00
2023-01-22T15:24:35.797Z,15.95
2023-01-22T15:27:02.603Z,14.70
2023-01-22T15:29:29.335Z,17.58
2023-01-22T15:31:56.107Z,15.48
2023-01-22T15:34:23.830Z,17.63
2023-01-22T15:36:50.609Z,17.95
2023-01-22T15:39:17.346Z,20.85
2023-01-22T15:41:44.212Z,19.88
2023-01-22T15:44:12.950Z,21.27
2023-01-22T15:46:41.966Z,20.90
2023-01-22T15:49:10.264Z,20.10
2023-01-22T15:51:37.194Z,22.08
2023-01-22T15:54:06.711Z,24.70
2023-01-22T15:56:36.551Z,17.88
2023-01-22T15:59:04.665Z,21.30
2023-01-22T16:01:31.764Z,19.27
2023-01-22T16:04:00.655Z,22.77
2023-01-22T16:06:29.538Z,20.50
2023-01-22T16:08:58.204Z,19.02
2023-01-22T16:11:26.823Z,20.27
2023-01-22T16:13:53.736Z,23.05
2023-01-22T16:16:21.776Z,23.35
2023-01-22T16:18:50.045Z,20.45
2023-01-22T16:21:18.422Z,22.08
2023-01-22T16:23:46.289Z,19.00
2023-01-22T16:26:18.490Z,19.17
2023-01-22T16:28:48.453Z,18.33
2023-01-22T16:31:18.890Z,18.45
2023-01-22T16:33:47.571Z,20.23
2023-01-22T16:36:16.834Z,19.42
2023-01-22T16:38:44.054Z,21.65
2023-01-22T16:41:27.735Z,21.20
2023-01-22T16:44:01.631Z,21.90
2023-01-22T16:46:30.909Z,22.70
2023-01-22T16:49:05.126Z,23.83
2023-01-22T16:51:37.937Z,19.90
2023-01-22T16:56:33.998Z,22.75
2023-01-22T16:59:01.542Z,20.60
2023-01-22T17:01:31.527Z,25.13
2023-01-22T17:03:58.359Z,24.23
2023-01-22T17:06:37.576Z,23.98
2023-01-22T17:09:04.399Z,22.52
2023-01-22T17:11:31.274Z,24.52
2023-01-22T17:13:59.719Z,24.35
2023-01-22T17:16:26.541Z,22.50
2023-01-22T17:18:54.841Z,26.23
2023-01-22T17:21:22.781Z,27.77
2023-01-22T17:23:49.585Z,25.98
2023-01-22T17:26:17.091Z,26.70
2023-01-22T17:28:44.293Z,28.42
2023-01-22T17:31:17.749Z,23.60
2023-01-22T17:33:45.041Z,26.85
2023-01-22T17:36:14.848Z,24.17
2023-01-22T17:38:42.394Z,26.83
2023-01-22T17:41:12.359Z,26.35
2023-01-22T17:43:39.079Z,26.55
2023-01-22T17:46:11.817Z,28.48
2023-01-22T17:48:38.968Z,26.98
2023-01-22T17:51:08.285Z,29.08
2023-01-22T17:53:38.081Z,28.10
2023-01-22T17:56:20.078Z,28.40
2023-01-22T17:58:50.315Z,28.13
2023-01-22T18:01:19.782Z,27.65
2023-01-22T18:03:47.437Z,25.17
2023-01-22T18:06:15.025Z,29.33
2023-01-22T18:08:42.533Z,28.00
2023-01-22T18:11:12.579Z,28.00
2023-01-22T18:13:39.650Z,28.15
2023-01-22T18:16:09.049Z,29.20
2023-01-22T18:18:36.109Z,31.00
2023-01-22T18:21:03.169Z,26.48
2023-01-22T18:23:29.970Z,29.48
2023-01-22T18:25:58.266Z,27.73
2023-01-22T18:28:26.874Z,28.38
2023-01-22T18:30:54.373Z,31.30
2023-01-22T18:33:21.737Z,34.20
2023-01-22T18:35:51.234Z,30.70
2023-01-22T18:38:25.167Z,28.08
2023-01-22T18:40:53.056Z,28.48
2023-01-22T18:43:19.855Z,30.02
2023-01-22T18:45:46.657Z,29.80
2023-01-22T18:48:15.986Z,32.13
2023-01-22T18:50:42.941Z,32.25
2023-01-22T18:53:09.942Z,32.15
2023-01-22T18:55:36.938Z,32.55
2023-01-22T18:58:27.652Z,35.13
2023-01-22T19:00:59.192Z,32.70
2023-01-22T19:03:26.940Z,34.58
2023-01-22T19:05:54.645Z,31.98
2023-01-22T19:08:22.862Z,31.65
2023-01-22T19:10:49.649Z,34.05
2023-01-22T19:13:16.605Z,35.95
2023-01-22T19:15:43.680Z,33.47
2023-01-22T19:18:10.664Z,33.97
2023-01-22T19:20:39.450Z,33.60
2023-01-22T19:23:06.465Z,34.40
2023-01-22T19:25:33.281Z,34.20
2023-01-22T19:28:00.147Z,36.70
2023-01-22T19:30:26.952Z,32.85
2023-01-22T19:32:55.536Z,35.97
2023-01-22T19:35:24.118Z,35.08
2023-01-22T19:37:54.060Z,34.20
2023-01-22T19:40:21.148Z,35.80
2023-01-22T19:42:48.552Z,35.10
2023-01-22T19:45:16.061Z,35.78
2023-01-22T19:47:42.899Z,34.45
2023-01-22T19:50:10.544Z,34.47
2023-01-22T19:52:37.323Z,34.90
2023-01-22T19:55:04.330Z,35.92
2023-01-22T19:57:33.206Z,35.55
2023-01-22T20:00:00.691Z,32.55
2023-01-22T20:02:27.987Z,35.85
2023-01-22T20:04:54.836Z,35.85
2023-01-22T20:07:22.579Z,36.10
2023-01-22T20:09:49.404Z,37.60
2023-01-22T20:12:16.349Z,41.20
2023-01-22T20:14:43.796Z,33.42
2023-01-22T20:17:12.975Z,37.65
2023-01-22T20:19:42.317Z,37.85
2023-01-22T20:22:10.828Z,35.58
2023-01-22T20:24:40.305Z,36.85
2023-01-22T20:27:08.446Z,37.95
2023-01-22T20:29:38.364Z,36.00
2023-01-22T20:32:05.843Z,36.13
2023-01-22T20:34:34.289Z,40.55
2023-01-22T20:37:01.259Z,41.42
2023-01-22T20:39:28.211Z,38.58
2023-01-22T20:41:55.297Z,39.10
2023-01-22T20:44:22.952Z,37.50
2023-01-22T20:46:51.046Z,40.42
2023-01-22T20:49:18.034Z,38.75
2023-01-22T20:51:44.983Z,41.70
2023-01-22T20:54:12.180Z,40.08
2023-01-22T20:56:39.168Z,35.85
2023-01-22T20:59:12.607Z,36.92
2023-01-22T21:01:40.354Z,36.70
2023-01-22T21:04:12.065Z,38.00
2023-01-22T21:06:40.191Z,36.38
2023-01-22T21:09:08.304Z,36.55
2023-01-22T21:11:36.944Z,37.30
2023-01-22T21:14:05.376Z,38.78
2023-01-22T21:16:38.890Z,34.22
2023-01-22T21:19:12.935Z,37.38
2023-01-22T21:21:42.895Z,37.28
2023-01-22T21:24:11.537Z,36.00
2023-01-22T21:26:43.545Z,42.83
2023-01-22T21:29:16.614Z,36.57
2023-01-22T21:31:44.766Z,34.72
2023-01-22T21:34:12.045Z,34.70
2023-01-22T21:36:45.157Z,40.38
2023-01-22T21:39:14.852Z,40.33
2023-01-22T21:41:42.411Z,39.13
2023-01-22T21:44:37.114Z,40.08
2023-01-22T21:47:05.263Z,37.70
2023-01-22T21:49:34.823Z,40.90
2023-01-22T21:52:09.444Z,36.38
2023-01-22T21:54:38.940Z,38.80
2023-01-22T21:57:06.764Z,43.95
2023-01-22T21:59:33.811Z,52.40
2023-01-22T22:02:00.931Z,50.40
2023-01-22T22:04:28.036Z,46.47
2023-01-22T22:06:55.059Z,55.60
2023-01-22T22:09:27.880Z,54.25
2023-01-22T22:11:59.778Z,55.33
2023-01-22T22:14:27.373Z,52.27
2023-01-22T22:16:55.163Z,58.00
2023-01-22T22:19:23.285Z,53.15
2023-01-22T22:21:51.192Z,54.55
2023-01-22T22:24:19.141Z,57.92
2023-01-22T22:26:46.089Z,59.40
2023-01-22T22:29:13.152Z,59.58
2023-01-22T22:31:40.103Z,61.80
2023-01-22T22:34:07.447Z,63.72
2023-01-22T22:36:34.375Z,61.28
2023-01-22T22:39:03.959Z,53.67
2023-01-22T22:41:32.794Z,53.22
2023-01-22T22:44:00.160Z,54.63
2023-01-22T22:46:28.146Z,54.40
2023-01-22T22:48:57.001Z,55.47
2023-01-22T22:51:25.848Z,54.80
2023-01-22T22:53:59.090Z,57.65
2023-01-22T22:56:27.168Z,49.47
2023-01-22T22:58:55.249Z,54.25
2023-01-22T23:01:24.154Z,51.17
2023-01-22T23:03:51.557Z,49.03
2023-01-22T23:06:21.477Z,55.17
2023-01-22T23:08:53.514Z,55.42
2023-01-22T23:11:32.554Z,48.67
2023-01-22T23:14:03.674Z,54.58
2023-01-22T23:16:33.344Z,57.05
2023-01-22T23:19:03.166Z,51.75
2023-01-22T23:21:30.576Z,50.20
2023-01-22T23:23:57.431Z,48.00
2023-01-22T23:26:30.104Z,53.25
2023-01-22T23:28:59.018Z,50.00
2023-01-22T23:31:27.340Z,55.58
2023-01-22T23:33:58.523Z,53.00
2023-01-22T23:36:26.301Z,57.65
2023-01-22T23:41:24.719Z,52.22
2023-01-22T23:43:51.740Z,57.45
2023-01-22T23:46:21.852Z,56.47
2023-01-22T23:48:49.668Z,59.92
2023-01-22T23:51:18.016Z,55.10
2023-01-22T23:53:48.541Z,52.03
2023-01-22T23:56:15.889Z,59.75
2023-01-22T23:58:43.444Z,57.15
